sensor_id;sensor_type;location;lat;lon;timestamp;pressure;altitude;pressure_sealevel;temperature;humidity
2184;BME280;1098;48.940;8.962;2023-02-23T00:00:37;98162.75;;;11.49;100.00
2184;BME280;1098;48.940;8.962;2023-02-23T00:03:06;98168.53;;;11.52;100.00
2184;BME280;1098;48.940;8.962;2023-02-23T00:05:36;98166.56;;;12.04;100.00
2184;BME280;1098;48.940;8.962;2023-02-23T00:08:04;98166.28;;;11.89;100.00
2184;BME280;1098;48.940;8.962;2023-02-23T00:10:33;98161.13;;;11.48;100.00
2184;BME280;1098;48.940;8.962;2023-02-23T00:13:01;98163.66;;;11.94;100.00
2184;BME280;1098;48.940;8.962;2023-02-23T00:15:30;98155.16;;;12.19;100.00
2184;BME280;1098;48.940;8.962;2023-02-23T00:17:59;98157.13;;;12.24;100.00
2184;BME280;1098;48.940;8.962;2023-02-23T00:20:30;98156.84;;;12.09;100.00
2184;BME280;1098;48.940;8.962;2023-02-23T00:23:00;98156.97;;;11.85;100.00
2184;BME280;1098;48.940;8.962;2023-02-23T00:25:28;98149.31;;;11.94;100.00
2184;BME280;1098;48.940;8.962;2023-02-23T00:27:57;98144.56;;;12.18;100.00
2184;BME280;1098;48.940;8.962;2023-02-23T00:30:26;98157.38;;;12.56;100.00
2184;BME280;1098;48.940;8.962;2023-02-23T00:32:54;98149.63;;;11.69;100.00
2184;BME280;1098;48.940;8.962;2023-02-23T00:35:23;98154.94;;;11.35;100.00
2184;BME280;1098;48.940;8.962;2023-02-23T00:37:51;98154.44;;;10.87;100.00
2184;BME280;1098;48.940;8.962;2023-02-23T00:40:21;98152.94;;;10.79;100.00
2184;BME280;1098;48.940;8.962;2023-02-23T00:42:50;98148.63;;;11.18;100.00
2184;BME280;1098;48.940;8.962;2023-02-23T00:45:19;98148.63;;;11.18;100.00
2184;BME280;1098;48.940;8.962;2023-02-23T00:47:47;98143.78;;;11.89;100.00
2184;BME280;1098;48.940;8.962;2023-02-23T00:50:16;98147.25;;;11.84;100.00
2184;BME280;1098;48.940;8.962;2023-02-23T00:52:45;98153.47;;;11.16;100.00
2184;BME280;1098;48.940;8.962;2023-02-23T00:55:14;98144.44;;;10.99;100.00
2184;BME280;1098;48.940;8.962;2023-02-23T00:57:44;98144.84;;;10.79;100.00
2184;BME280;1098;48.940;8.962;2023-02-23T01:00:13;98149.75;;;10.94;100.00
2184;BME280;1098;48.940;8.962;2023-02-23T01:02:46;98141.47;;;11.52;100.00
2184;BME280;1098;48.940;8.962;2023-02-23T01:05:15;98139.28;;;11.66;100.00
2184;BME280;1098;48.940;8.962;2023-02-23T01:07:44;98140.47;;;11.42;100.00
2184;BME280;1098;48.940;8.962;2023-02-23T01:10:13;98150.25;;;11.31;100.00
2184;BME280;1098;48.940;8.962;2023-02-23T01:12:50;98148.75;;;11.12;100.00
2184;BME280;1098;48.940;8.962;2023-02-23T01:15:22;98138.66;;;12.04;100.00
2184;BME280;1098;48.940;8.962;2023-02-23T01:17:50;98139.28;;;11.78;100.00
2184;BME280;1098;48.940;8.962;2023-02-23T01:20:21;98147.63;;;10.96;100.00
2184;BME280;1098;48.940;8.962;2023-02-23T01:22:50;98151.44;;;11.23;100.00
2184;BME280;1098;48.940;8.962;2023-02-23T01:25:20;98150.88;;;11.21;100.00
2184;BME280;1098;48.940;8.962;2023-02-23T01:27:52;98147.66;;;10.73;100.00
2184;BME280;1098;48.940;8.962;2023-02-23T01:30:20;98140.47;;;10.43;100.00
2184;BME280;1098;48.940;8.962;2023-02-23T01:32:49;98146.00;;;11.23;100.00
2184;BME280;1098;48.940;8.962;2023-02-23T01:35:21;98145.06;;;11.29;100.00
2184;BME280;1098;48.940;8.962;2023-02-23T01:37:49;98137.22;;;11.85;100.00
2184;BME280;1098;48.940;8.962;2023-02-23T01:40:20;98131.06;;;11.89;100.00
2184;BME280;1098;48.940;8.962;2023-02-23T01:42:58;98134.44;;;11.68;100.00
2184;BME280;1098;48.940;8.962;2023-02-23T01:45:32;98138.00;;;10.65;100.00
2184;BME280;1098;48.940;8.962;2023-02-23T01:48:04;98143.41;;;10.65;100.00
2184;BME280;1098;48.940;8.962;2023-02-23T01:50:47;98140.78;;;11.74;100.00
2184;BME280;1098;48.940;8.962;2023-02-23T01:53:21;98137.09;;;11.63;100.00
2184;BME280;1098;48.940;8.962;2023-02-23T01:55:54;98133.63;;;11.67;100.00
2184;BME280;1098;48.940;8.962;2023-02-23T01:58:26;98124.91;;;11.77;100.00
2184;BME280;1098;48.940;8.962;2023-02-23T02:00:58;98124.97;;;11.25;100.00
2184;BME280;1098;48.940;8.962;2023-02-23T02:03:34;98129.91;;;11.57;100.00
2184;BME280;1098;48.940;8.962;2023-02-23T02:06:05;98134.53;;;11.45;100.00
2184;BME280;1098;48.940;8.962;2023-02-23T02:08:36;98136.81;;;11.36;100.00
2184;BME280;1098;48.940;8.962;2023-02-23T02:11:11;98134.66;;;11.21;100.00
2184;BME280;1098;48.940;8.962;2023-02-23T02:13:56;98132.84;;;11.27;100.00
2184;BME280;1098;48.940;8.962;2023-02-23T02:16:36;98127.00;;;11.18;100.00
2184;BME280;1098;48.940;8.962;2023-02-23T02:19:35;98123.16;;;11.02;100.00
2184;BME280;1098;48.940;8.962;2023-02-23T02:22:25;98123.09;;;10.74;100.00
2184;BME280;1098;48.940;8.962;2023-02-23T02:25:38;98131.19;;;10.27;100.00
2184;BME280;1098;48.940;8.962;2023-02-23T02:28:32;98121.41;;;10.85;100.00
2184;BME280;1098;48.940;8.962;2023-02-23T02:34:32;98111.41;;;12.11;100.00
2184;BME280;1098;48.940;8.962;2023-02-23T02:37:21;98114.00;;;12.05;100.00
2184;BME280;1098;48.940;8.962;2023-02-23T02:39:58;98108.69;;;11.77;100.00
2184;BME280;1098;48.940;8.962;2023-02-23T02:42:49;98114.00;;;11.32;100.00
2184;BME280;1098;48.940;8.962;2023-02-23T02:45:25;98110.72;;;10.90;100.00
2184;BME280;1098;48.940;8.962;2023-02-23T02:47:57;98112.63;;;10.78;100.00
2184;BME280;1098;48.940;8.962;2023-02-23T02:50:35;98116.34;;;11.00;100.00
2184;BME280;1098;48.940;8.962;2023-02-23T02:53:09;98108.03;;;11.58;100.00
2184;BME280;1098;48.940;8.962;2023-02-23T02:55:42;98108.13;;;10.95;100.00
2184;BME280;1098;48.940;8.962;2023-02-23T02:58:12;98109.59;;;10.62;100.00
2184;BME280;1098;48.940;8.962;2023-02-23T03:00:46;98098.03;;;11.59;100.00
2184;BME280;1098;48.940;8.962;2023-02-23T03:03:36;98104.19;;;11.71;100.00
2184;BME280;1098;48.940;8.962;2023-02-23T03:06:26;98106.53;;;11.79;100.00
2184;BME280;1098;48.940;8.962;2023-02-23T03:09:23;98099.69;;;11.60;100.00
2184;BME280;1098;48.940;8.962;2023-02-23T03:12:25;98103.50;;;10.55;100.00
2184;BME280;1098;48.940;8.962;2023-02-23T03:15:23;98114.53;;;11.46;100.00
2184;BME280;1098;48.940;8.962;2023-02-23T03:18:25;98108.16;;;11.52;100.00
2184;BME280;1098;48.940;8.962;2023-02-23T03:21:20;98107.25;;;10.31;100.00
2184;BME280;1098;48.940;8.962;2023-02-23T03:24:14;98118.50;;;10.63;100.00
2184;BME280;1098;48.940;8.962;2023-02-23T03:27:10;98118.03;;;10.66;100.00
2184;BME280;1098;48.940;8.962;2023-02-23T03:30:03;98112.41;;;10.67;100.00
2184;BME280;1098;48.940;8.962;2023-02-23T03:32:54;98118.16;;;10.48;100.00
2184;BME280;1098;48.940;8.962;2023-02-23T03:35:45;98110.31;;;10.58;100.00
2184;BME280;1098;48.940;8.962;2023-02-23T03:38:37;98115.53;;;10.99;100.00
2184;BME280;1098;48.940;8.962;2023-02-23T03:41:28;98111.69;;;11.24;100.00
2184;BME280;1098;48.940;8.962;2023-02-23T03:44:22;98111.47;;;11.54;100.00
2184;BME280;1098;48.940;8.962;2023-02-23T03:47:11;98113.38;;;11.70;100.00
2184;BME280;1098;48.940;8.962;2023-02-23T03:50:06;98111.63;;;11.07;100.00
2184;BME280;1098;48.940;8.962;2023-02-23T03:52:57;98104.78;;;10.29;100.00
2184;BME280;1098;48.940;8.962;2023-02-23T03:55:48;98108.66;;;10.68;100.00
2184;BME280;1098;48.940;8.962;2023-02-23T03:58:38;98104.22;;;11.43;100.00
2184;BME280;1098;48.940;8.962;2023-02-23T04:01:26;98116.47;;;11.33;100.00
2184;BME280;1098;48.940;8.962;2023-02-23T04:04:17;98114.78;;;10.52;100.00
2184;BME280;1098;48.940;8.962;2023-02-23T04:07:06;98100.06;;;10.72;100.00
2184;BME280;1098;48.940;8.962;2023-02-23T04:09:53;98114.75;;;10.64;100.00
2184;BME280;1098;48.940;8.962;2023-02-23T04:12:45;98110.31;;;11.10;100.00
2184;BME280;1098;48.940;8.962;2023-02-23T04:15:37;98110.41;;;11.55;100.00
2184;BME280;1098;48.940;8.962;2023-02-23T04:18:12;98110.78;;;11.18;100.00
2184;BME280;1098;48.940;8.962;2023-02-23T04:20:41;98120.19;;;11.16;100.00
2184;BME280;1098;48.940;8.962;2023-02-23T04:23:12;98113.56;;;10.72;100.00
2184;BME280;1098;48.940;8.962;2023-02-23T04:25:40;98113.91;;;11.27;100.00
2184;BME280;1098;48.940;8.962;2023-02-23T04:28:08;98117.97;;;11.13;100.00
2184;BME280;1098;48.940;8.962;2023-02-23T04:30:37;98127.09;;;11.23;100.00
2184;BME280;1098;48.940;8.962;2023-02-23T04:33:07;98118.50;;;11.26;100.00
2184;BME280;1098;48.940;8.962;2023-02-23T04:35:35;98124.28;;;10.55;100.00
2184;BME280;1098;48.940;8.962;2023-02-23T04:38:04;98126.34;;;10.99;100.00
2184;BME280;1098;48.940;8.962;2023-02-23T04:40:33;98125.56;;;10.76;100.00
2184;BME280;1098;48.940;8.962;2023-02-23T04:43:01;98133.31;;;10.49;100.00
2184;BME280;1098;48.940;8.962;2023-02-23T04:45:30;98127.78;;;10.44;100.00
2184;BME280;1098;48.940;8.962;2023-02-23T04:47:58;98129.81;;;10.48;100.00
2184;BME280;1098;48.940;8.962;2023-02-23T04:50:28;98134.38;;;10.71;100.00
2184;BME280;1098;48.940;8.962;2023-02-23T04:52:58;98123.91;;;10.75;100.00
2184;BME280;1098;48.940;8.962;2023-02-23T04:55:27;98128.06;;;11.17;100.00
2184;BME280;1098;48.940;8.962;2023-02-23T04:57:56;98121.94;;;11.50;100.00
2184;BME280;1098;48.940;8.962;2023-02-23T05:00:26;98115.44;;;11.63;100.00
2184;BME280;1098;48.940;8.962;2023-02-23T05:02:56;98126.25;;;10.83;100.00
2184;BME280;1098;48.940;8.962;2023-02-23T05:05:28;98119.63;;;11.02;100.00
2184;BME280;1098;48.940;8.962;2023-02-23T05:07:59;98124.41;;;11.52;100.00
2184;BME280;1098;48.940;8.962;2023-02-23T05:10:28;98120.78;;;11.46;100.00
2184;BME280;1098;48.940;8.962;2023-02-23T05:12:57;98115.66;;;11.61;100.00
2184;BME280;1098;48.940;8.962;2023-02-23T05:15:25;98126.25;;;10.83;100.00
2184;BME280;1098;48.940;8.962;2023-02-23T05:17:54;98122.81;;;10.99;100.00
2184;BME280;1098;48.940;8.962;2023-02-23T05:20:22;98124.31;;;11.18;100.00
2184;BME280;1098;48.940;8.962;2023-02-23T05:22:52;98126.34;;;10.88;100.00
2184;BME280;1098;48.940;8.962;2023-02-23T05:25:20;98128.97;;;10.48;100.00
2184;BME280;1098;48.940;8.962;2023-02-23T05:27:48;98133.09;;;10.74;100.00
2184;BME280;1098;48.940;8.962;2023-02-23T05:30:17;98114.41;;;10.72;100.00
2184;BME280;1098;48.940;8.962;2023-02-23T05:32:45;98134.03;;;10.67;100.00
2184;BME280;1098;48.940;8.962;2023-02-23T05:35:14;98130.63;;;10.72;100.00
2184;BME280;1098;48.940;8.962;2023-02-23T05:37:42;98128.44;;;11.09;100.00
2184;BME280;1098;48.940;8.962;2023-02-23T05:40:13;98130.03;;;10.47;100.00
2184;BME280;1098;48.940;8.962;2023-02-23T05:42:42;98133.56;;;10.71;100.00
2184;BME280;1098;48.940;8.962;2023-02-23T05:45:11;98127.06;;;10.60;100.00
2184;BME280;1098;48.940;8.962;2023-02-23T05:47:39;98128.06;;;11.17;100.00
2184;BME280;1098;48.940;8.962;2023-02-23T05:50:09;98130.47;;;10.90;100.00
2184;BME280;1098;48.940;8.962;2023-02-23T05:52:38;98125.56;;;10.76;100.00
2184;BME280;1098;48.940;8.962;2023-02-23T05:55:09;98124.13;;;10.96;100.00
2184;BME280;1098;48.940;8.962;2023-02-23T05:57:39;98122.94;;;10.81;100.00
2184;BME280;1098;48.940;8.962;2023-02-23T06:00:09;98129.56;;;10.61;100.00
2184;BME280;1098;48.940;8.962;2023-02-23T06:02:39;98123.81;;;10.58;100.00
2184;BME280;1098;48.940;8.962;2023-02-23T06:05:08;98124.03;;;10.80;100.00
2184;BME280;1098;48.940;8.962;2023-02-23T06:07:39;98133.66;;;10.64;100.00
2184;BME280;1098;48.940;8.962;2023-02-23T06:10:08;98133.09;;;10.74;100.00
2184;BME280;1098;48.940;8.962;2023-02-23T06:12:37;98126.63;;;11.26;100.00
2184;BME280;1098;48.940;8.962;2023-02-23T06:15:07;98132.97;;;10.33;100.00
2184;BME280;1098;48.940;8.962;2023-02-23T06:17:36;98139.06;;;10.41;100.00
2184;BME280;1098;48.940;8.962;2023-02-23T06:20:05;98139.41;;;10.91;100.00
2184;BME280;1098;48.940;8.962;2023-02-23T06:22:33;98137.59;;;11.08;100.00
2184;BME280;1098;48.940;8.962;2023-02-23T06:25:01;98131.91;;;10.23;100.00
2184;BME280;1098;48.940;8.962;2023-02-23T06:27:31;98148.34;;;10.68;100.00
2184;BME280;1098;48.940;8.962;2023-02-23T06:30:00;98148.00;;;10.53;100.00
2184;BME280;1098;48.940;8.962;2023-02-23T06:32:30;98143.63;;;9.75;100.00
2184;BME280;1098;48.940;8.962;2023-02-23T06:34:59;98159.94;;;9.80;100.00
2184;BME280;1098;48.940;8.962;2023-02-23T06:37:28;98157.38;;;9.85;100.00
2184;BME280;1098;48.940;8.962;2023-02-23T06:39:57;98163.84;;;9.54;100.00
2184;BME280;1098;48.940;8.962;2023-02-23T06:42:25;98158.56;;;9.89;100.00
2184;BME280;1098;48.940;8.962;2023-02-23T06:44:54;98166.34;;;9.97;100.00
2184;BME280;1098;48.940;8.962;2023-02-23T06:47:22;98165.72;;;10.25;100.00
2184;BME280;1098;48.940;8.962;2023-02-23T06:49:52;98159.47;;;11.47;100.00
2184;BME280;1098;48.940;8.962;2023-02-23T06:52:21;98159.94;;;11.03;100.00
2184;BME280;1098;48.940;8.962;2023-02-23T06:54:51;98162.94;;;11.30;100.00
2184;BME280;1098;48.940;8.962;2023-02-23T06:57:21;98169.47;;;10.83;100.00
2184;BME280;1098;48.940;8.962;2023-02-23T06:59:50;98168.72;;;11.22;100.00
2184;BME280;1098;48.940;8.962;2023-02-23T07:02:19;98168.19;;;10.97;100.00
2184;BME280;1098;48.940;8.962;2023-02-23T07:04:47;98162.44;;;10.82;100.00
2184;BME280;1098;48.940;8.962;2023-02-23T07:07:17;98164.44;;;10.98;100.00
2184;BME280;1098;48.940;8.962;2023-02-23T07:09:45;98163.28;;;11.34;100.00
2184;BME280;1098;48.940;8.962;2023-02-23T07:12:16;98173.41;;;11.39;100.00
2184;BME280;1098;48.940;8.962;2023-02-23T07:14:44;98175.72;;;10.95;100.00
2184;BME280;1098;48.940;8.962;2023-02-23T07:17:13;98181.44;;;11.10;100.00
2184;BME280;1098;48.940;8.962;2023-02-23T07:19:41;98188.97;;;11.20;100.00
2184;BME280;1098;48.940;8.962;2023-02-23T07:22:09;98199.72;;;10.15;100.00
2184;BME280;1098;48.940;8.962;2023-02-23T07:24:39;98202.22;;;9.98;100.00
2184;BME280;1098;48.940;8.962;2023-02-23T07:27:07;98210.25;;;9.75;100.00
2184;BME280;1098;48.940;8.962;2023-02-23T07:29:36;98205.88;;;10.33;100.00
2184;BME280;1098;48.940;8.962;2023-02-23T07:32:05;98204.03;;;10.57;100.00
2184;BME280;1098;48.940;8.962;2023-02-23T07:34:33;98206.25;;;9.95;100.00
2184;BME280;1098;48.940;8.962;2023-02-23T07:37:03;98204.69;;;10.29;100.00
2184;BME280;1098;48.940;8.962;2023-02-23T07:39:31;98202.28;;;10.98;100.00
2184;BME280;1098;48.940;8.962;2023-02-23T07:42:01;98201.94;;;11.46;100.00
2184;BME280;1098;48.940;8.962;2023-02-23T07:44:29;98200.41;;;11.50;100.00
2184;BME280;1098;48.940;8.962;2023-02-23T07:46:58;98201.53;;;11.78;100.00
2184;BME280;1098;48.940;8.962;2023-02-23T07:49:26;98191.34;;;11.85;100.00
2184;BME280;1098;48.940;8.962;2023-02-23T07:51:56;98198.94;;;11.31;100.00
2184;BME280;1098;48.940;8.962;2023-02-23T07:54:24;98211.75;;;11.35;100.00
2184;BME280;1098;48.940;8.962;2023-02-23T07:56:53;98198.66;;;12.29;100.00
2184;BME280;1098;48.940;8.962;2023-02-23T07:59:22;98203.28;;;11.72;100.00
2184;BME280;1098;48.940;8.962;2023-02-23T08:01:51;98198.66;;;12.29;100.00
2184;BME280;1098;48.940;8.962;2023-02-23T08:04:19;98208.66;;;11.44;100.00
2184;BME280;1098;48.940;8.962;2023-02-23T08:06:47;98216.34;;;11.75;100.00
2184;BME280;1098;48.940;8.962;2023-02-23T08:09:16;98207.75;;;11.26;100.00
2184;BME280;1098;48.940;8.962;2023-02-23T08:11:44;98198.41;;;11.86;100.00
2184;BME280;1098;48.940;8.962;2023-02-23T08:14:14;98206.66;;;12.08;100.00
2184;BME280;1098;48.940;8.962;2023-02-23T08:16:44;98210.38;;;12.01;100.00
2184;BME280;1098;48.940;8.962;2023-02-23T08:19:12;98205.53;;;12.03;100.00
2184;BME280;1098;48.940;8.962;2023-02-23T08:21:41;98206.47;;;11.81;100.00
2184;BME280;1098;48.940;8.962;2023-02-23T08:24:10;98211.81;;;11.52;100.00
2184;BME280;1098;48.940;8.962;2023-02-23T08:26:38;98210.41;;;11.90;100.00
2184;BME280;1098;48.940;8.962;2023-02-23T08:29:07;98219.59;;;11.89;100.00
2184;BME280;1098;48.940;8.962;2023-02-23T08:31:36;98220.63;;;11.99;100.00
2184;BME280;1098;48.940;8.962;2023-02-23T08:34:06;98221.84;;;12.09;100.00
2184;BME280;1098;48.940;8.962;2023-02-23T08:36:34;98215.44;;;11.58;100.00
2184;BME280;1098;48.940;8.962;2023-02-23T08:39:03;98213.22;;;12.40;100.00
2184;BME280;1098;48.940;8.962;2023-02-23T08:41:32;98202.53;;;12.50;100.00
2184;BME280;1098;48.940;8.962;2023-02-23T08:44:00;98205.56;;;11.92;100.00
2184;BME280;1098;48.940;8.962;2023-02-23T08:46:29;98210.84;;;12.44;100.00
2184;BME280;1098;48.940;8.962;2023-02-23T08:48:58;98191.44;;;12.85;100.00
2184;BME280;1098;48.940;8.962;2023-02-23T08:51:27;98205.56;;;12.87;100.00
2184;BME280;1098;48.940;8.962;2023-02-23T08:53:56;98213.03;;;12.97;100.00
2184;BME280;1098;48.940;8.962;2023-02-23T08:56:24;98216.13;;;12.89;100.00
2184;BME280;1098;48.940;8.962;2023-02-23T08:58:53;98215.81;;;13.19;100.00
2184;BME280;1098;48.940;8.962;2023-02-23T09:01:21;98217.38;;;12.98;100.00
2184;BME280;1098;48.940;8.962;2023-02-23T09:03:49;98219.91;;;13.04;100.00
2184;BME280;1098;48.940;8.962;2023-02-23T09:06:19;98217.66;;;13.35;100.00
2184;BME280;1098;48.940;8.962;2023-02-23T09:08:50;98218.84;;;13.88;100.00
2184;BME280;1098;48.940;8.962;2023-02-23T09:11:22;98209.50;;;13.57;100.00
2184;BME280;1098;48.940;8.962;2023-02-23T09:13:51;98218.28;;;13.64;100.00
2184;BME280;1098;48.940;8.962;2023-02-23T09:16:19;98219.03;;;12.99;100.00
2184;BME280;1098;48.940;8.962;2023-02-23T09:18:50;98220.91;;;13.15;100.00
2184;BME280;1098;48.940;8.962;2023-02-23T09:21:20;98226.03;;;12.61;100.00
2184;BME280;1098;48.940;8.962;2023-02-23T09:23:52;98225.59;;;12.69;100.00
2184;BME280;1098;48.940;8.962;2023-02-23T09:26:23;98213.28;;;13.34;100.00
2184;BME280;1098;48.940;8.962;2023-02-23T09:28:54;98212.03;;;13.03;100.00
2184;BME280;1098;48.940;8.962;2023-02-23T09:31:23;98222.97;;;13.47;100.00
2184;BME280;1098;48.940;8.962;2023-02-23T09:33:52;98207.25;;;13.49;100.00
2184;BME280;1098;48.940;8.962;2023-02-23T09:36:22;98221.81;;;13.21;100.00
2184;BME280;1098;48.940;8.962;2023-02-23T09:38:53;98214.72;;;12.64;100.00
2184;BME280;1098;48.940;8.962;2023-02-23T09:41:49;98208.09;;;12.94;100.00
2184;BME280;1098;48.940;8.962;2023-02-23T09:44:28;98211.28;;;13.24;100.00
2184;BME280;1098;48.940;8.962;2023-02-23T09:47:18;98214.75;;;13.03;100.00
2184;BME280;1098;48.940;8.962;2023-02-23T09:49:49;98210.72;;;13.66;100.00
2184;BME280;1098;48.940;8.962;2023-02-23T09:52:24;98212.06;;;14.12;100.00
2184;BME280;1098;48.940;8.962;2023-02-23T09:54:56;98208.56;;;13.90;100.00
2184;BME280;1098;48.940;8.962;2023-02-23T09:57:36;98213.69;;;12.70;100.00
2184;BME280;1098;48.940;8.962;2023-02-23T10:00:13;98213.22;;;12.40;100.00
2184;BME280;1098;48.940;8.962;2023-02-23T10:02:55;98216.31;;;12.99;100.00
2184;BME280;1098;48.940;8.962;2023-02-23T10:05:27;98222.31;;;12.51;100.00
2184;BME280;1098;48.940;8.962;2023-02-23T10:08:01;98220.59;;;12.95;100.00
2184;BME280;1098;48.940;8.962;2023-02-23T10:10:37;98218.88;;;12.72;100.00
2184;BME280;1098;48.940;8.962;2023-02-23T10:13:14;98216.72;;;13.24;100.00
2184;BME280;1098;48.940;8.962;2023-02-23T10:15:48;98219.34;;;13.02;100.00
2184;BME280;1098;48.940;8.962;2023-02-23T10:18:25;98214.31;;;13.28;100.00
2184;BME280;1098;48.940;8.962;2023-02-23T10:21:15;98218.47;;;12.63;100.00
2184;BME280;1098;48.940;8.962;2023-02-23T10:23:51;98220.19;;;12.86;100.00
2184;BME280;1098;48.940;8.962;2023-02-23T10:26:29;98219.75;;;13.28;100.00
2184;BME280;1098;48.940;8.962;2023-02-23T10:29:02;98214.09;;;14.00;100.00
2184;BME280;1098;48.940;8.962;2023-02-23T10:31:37;98220.81;;;13.92;100.00
2184;BME280;1098;48.940;8.962;2023-02-23T10:34:12;98210.91;;;15.04;100.00
2184;BME280;1098;48.940;8.962;2023-02-23T10:36:45;98217.09;;;14.57;100.00
2184;BME280;1098;48.940;8.962;2023-02-23T10:39:15;98219.75;;;13.71;100.00
2184;BME280;1098;48.940;8.962;2023-02-23T10:41:45;98224.09;;;13.72;100.00
2184;BME280;1098;48.940;8.962;2023-02-23T10:44:18;98223.41;;;14.63;100.00
2184;BME280;1098;48.940;8.962;2023-02-23T10:46:51;98220.63;;;14.58;100.00
2184;BME280;1098;48.940;8.962;2023-02-23T10:49:24;98221.66;;;14.84;100.00
2184;BME280;1098;48.940;8.962;2023-02-23T10:51:56;98225.28;;;14.94;100.00
2184;BME280;1098;48.940;8.962;2023-02-23T10:54:37;98221.53;;;15.05;100.00
2184;BME280;1098;48.940;8.962;2023-02-23T10:57:18;98225.03;;;15.01;100.00
2184;BME280;1098;48.940;8.962;2023-02-23T11:00:10;98224.34;;;14.47;100.00
2184;BME280;1098;48.940;8.962;2023-02-23T11:02:54;98225.97;;;15.64;100.00
2184;BME280;1098;48.940;8.962;2023-02-23T11:05:32;98222.59;;;16.14;100.00
2184;BME280;1098;48.940;8.962;2023-02-23T11:08:09;98221.44;;;15.32;100.00
2184;BME280;1098;48.940;8.962;2023-02-23T11:10:37;98213.88;;;16.17;100.00
2184;BME280;1098;48.940;8.962;2023-02-23T11:13:20;98213.59;;;16.08;100.00
2184;BME280;1098;48.940;8.962;2023-02-23T11:15:58;98217.06;;;15.78;100.00
2184;BME280;1098;48.940;8.962;2023-02-23T11:18:27;98199.69;;;16.05;100.00
2184;BME280;1098;48.940;8.962;2023-02-23T11:20:56;98206.56;;;16.83;100.00
2184;BME280;1098;48.940;8.962;2023-02-23T11:23:26;98204.41;;;16.65;100.00
2184;BME280;1098;48.940;8.962;2023-02-23T11:25:57;98192.91;;;16.33;100.00
2184;BME280;1098;48.940;8.962;2023-02-23T11:28:31;98200.00;;;14.62;100.00
2184;BME280;1098;48.940;8.962;2023-02-23T11:31:03;98196.56;;;15.66;100.00
2184;BME280;1098;48.940;8.962;2023-02-23T11:33:37;98181.59;;;15.11;100.00
2184;BME280;1098;48.940;8.962;2023-02-23T11:36:15;98190.38;;;15.86;100.00
2184;BME280;1098;48.940;8.962;2023-02-23T11:38:45;98194.28;;;16.20;100.00
2184;BME280;1098;48.940;8.962;2023-02-23T11:41:19;98179.56;;;16.41;100.00
2184;BME280;1098;48.940;8.962;2023-02-23T11:43:50;98185.53;;;16.43;100.00
2184;BME280;1098;48.940;8.962;2023-02-23T11:46:19;98185.19;;;15.27;100.00
2184;BME280;1098;48.940;8.962;2023-02-23T11:48:50;98183.88;;;16.12;100.00
2184;BME280;1098;48.940;8.962;2023-02-23T11:51:23;98180.09;;;16.28;100.00
2184;BME280;1098;48.940;8.962;2023-02-23T11:53:52;98185.03;;;16.57;100.00
2184;BME280;1098;48.940;8.962;2023-02-23T11:56:22;98179.75;;;15.79;100.00
2184;BME280;1098;48.940;8.962;2023-02-23T11:58:58;98178.16;;;16.13;100.00
2184;BME280;1098;48.940;8.962;2023-02-23T12:01:37;98181.34;;;15.80;100.00
2184;BME280;1098;48.940;8.962;2023-02-23T12:04:08;98174.78;;;15.71;100.00
2184;BME280;1098;48.940;8.962;2023-02-23T12:06:39;98178.06;;;15.73;100.00
2184;BME280;1098;48.940;8.962;2023-02-23T12:09:15;98167.84;;;16.36;100.00
2184;BME280;1098;48.940;8.962;2023-02-23T12:11:49;98158.56;;;16.67;100.00
2184;BME280;1098;48.940;8.962;2023-02-23T12:14:26;98175.69;;;16.02;100.00
2184;BME280;1098;48.940;8.962;2023-02-23T12:16:59;98175.09;;;15.85;100.00
2184;BME280;1098;48.940;8.962;2023-02-23T12:19:33;98171.63;;;16.30;100.00
2184;BME280;1098;48.940;8.962;2023-02-23T12:22:06;63131.69;;;-143.11;100.00
2184;BME280;1098;48.940;8.962;2023-02-23T12:24:42;63131.69;;;-143.11;100.00
2184;BME280;1098;48.940;8.962;2023-02-23T12:27:15;63131.69;;;-143.11;100.00
2184;BME280;1098;48.940;8.962;2023-02-23T12:30:02;63131.69;;;-143.11;100.00
2184;BME280;1098;48.940;8.962;2023-02-23T12:32:43;63131.69;;;-143.11;100.00
2184;BME280;1098;48.940;8.962;2023-02-23T12:35:17;63131.69;;;-143.11;100.00
2184;BME280;1098;48.940;8.962;2023-02-23T12:37:50;63131.69;;;-143.11;100.00
2184;BME280;1098;48.940;8.962;2023-02-23T12:40:22;63131.69;;;-143.11;100.00
2184;BME280;1098;48.940;8.962;2023-02-23T12:43:00;63131.69;;;-143.11;100.00
2184;BME280;1098;48.940;8.962;2023-02-23T12:45:34;63131.69;;;-143.11;100.00
2184;BME280;1098;48.940;8.962;2023-02-23T12:48:27;63131.69;;;-143.11;100.00
2184;BME280;1098;48.940;8.962;2023-02-23T12:51:00;63131.69;;;-143.11;100.00
2184;BME280;1098;48.940;8.962;2023-02-23T12:53:36;63131.69;;;-143.11;100.00
2184;BME280;1098;48.940;8.962;2023-02-23T12:56:20;63131.69;;;-143.11;100.00
2184;BME280;1098;48.940;8.962;2023-02-23T12:59:01;63131.69;;;-143.11;100.00
2184;BME280;1098;48.940;8.962;2023-02-23T13:01:40;63131.69;;;-143.11;100.00
2184;BME280;1098;48.940;8.962;2023-02-23T13:04:31;63131.69;;;-143.11;100.00
2184;BME280;1098;48.940;8.962;2023-02-23T13:07:15;63131.69;;;-143.11;100.00
2184;BME280;1098;48.940;8.962;2023-02-23T13:10:02;63131.69;;;-143.11;100.00
2184;BME280;1098;48.940;8.962;2023-02-23T13:12:45;63131.69;;;-143.11;100.00
2184;BME280;1098;48.940;8.962;2023-02-23T13:15:22;63131.69;;;-143.11;100.00
2184;BME280;1098;48.940;8.962;2023-02-23T13:17:59;63131.69;;;-143.11;100.00
2184;BME280;1098;48.940;8.962;2023-02-23T13:20:33;63131.69;;;-143.11;100.00
2184;BME280;1098;48.940;8.962;2023-02-23T13:23:12;63131.69;;;-143.11;100.00
2184;BME280;1098;48.940;8.962;2023-02-23T13:25:49;63131.69;;;-143.11;100.00
2184;BME280;1098;48.940;8.962;2023-02-23T13:28:33;63131.69;;;-143.11;100.00
2184;BME280;1098;48.940;8.962;2023-02-23T13:31:06;63131.69;;;-143.11;100.00
2184;BME280;1098;48.940;8.962;2023-02-23T13:33:41;63131.69;;;-143.11;100.00
2184;BME280;1098;48.940;8.962;2023-02-23T13:36:11;63131.69;;;-143.11;100.00
2184;BME280;1098;48.940;8.962;2023-02-23T13:38:44;63131.69;;;-143.11;100.00
2184;BME280;1098;48.940;8.962;2023-02-23T13:41:28;63131.69;;;-143.11;100.00
2184;BME280;1098;48.940;8.962;2023-02-23T13:44:04;63131.69;;;-143.11;100.00
2184;BME280;1098;48.940;8.962;2023-02-23T13:46:43;63131.69;;;-143.11;100.00
2184;BME280;1098;48.940;8.962;2023-02-23T13:49:21;63131.69;;;-143.11;100.00